sensor_id;sensor_type;location;lat;lon;timestamp;P1;durP1;ratioP1;P2;durP2;ratioP2
1885;SDS011;943;51.568;6.998;2023-03-14T00:01:21;4.97;;;1.80;;
1885;SDS011;943;51.568;6.998;2023-03-14T00:03:50;8.83;;;2.47;;
1885;SDS011;943;51.568;6.998;2023-03-14T00:06:18;6.40;;;1.97;;
1885;SDS011;943;51.568;6.998;2023-03-14T00:08:47;6.70;;;2.00;;
1885;SDS011;943;51.568;6.998;2023-03-14T00:11:20;4.70;;;2.30;;
1885;SDS011;943;51.568;6.998;2023-03-14T00:13:49;8.70;;;2.37;;
1885;SDS011;943;51.568;6.998;2023-03-14T00:16:19;5.43;;;2.20;;
1885;SDS011;943;51.568;6.998;2023-03-14T00:18:48;9.73;;;1.97;;
1885;SDS011;943;51.568;6.998;2023-03-14T00:21:17;5.40;;;2.10;;
1885;SDS011;943;51.568;6.998;2023-03-14T00:23:45;7.73;;;2.50;;
1885;SDS011;943;51.568;6.998;2023-03-14T00:26:14;5.40;;;2.20;;
1885;SDS011;943;51.568;6.998;2023-03-14T00:28:50;7.53;;;2.27;;
1885;SDS011;943;51.568;6.998;2023-03-14T00:31:21;6.83;;;2.30;;
1885;SDS011;943;51.568;6.998;2023-03-14T00:33:50;6.80;;;2.27;;
1885;SDS011;943;51.568;6.998;2023-03-14T00:36:21;7.03;;;2.63;;
1885;SDS011;943;51.568;6.998;2023-03-14T00:38:50;4.63;;;1.93;;
1885;SDS011;943;51.568;6.998;2023-03-14T00:41:19;6.33;;;1.97;;
1885;SDS011;943;51.568;6.998;2023-03-14T00:43:50;7.03;;;2.07;;
1885;SDS011;943;51.568;6.998;2023-03-14T00:46:19;8.53;;;1.70;;
1885;SDS011;943;51.568;6.998;2023-03-14T00:48:47;11.70;;;3.20;;
1885;SDS011;943;51.568;6.998;2023-03-14T00:51:15;9.77;;;2.50;;
1885;SDS011;943;51.568;6.998;2023-03-14T00:53:44;5.03;;;2.03;;
1885;SDS011;943;51.568;6.998;2023-03-14T00:56:12;7.53;;;2.57;;
1885;SDS011;943;51.568;6.998;2023-03-14T00:58:40;5.70;;;2.80;;
1885;SDS011;943;51.568;6.998;2023-03-14T01:01:12;7.07;;;2.70;;
1885;SDS011;943;51.568;6.998;2023-03-14T01:03:46;7.30;;;2.33;;
1885;SDS011;943;51.568;6.998;2023-03-14T01:06:18;3.83;;;1.97;;
1885;SDS011;943;51.568;6.998;2023-03-14T01:08:54;4.43;;;1.60;;
1885;SDS011;943;51.568;6.998;2023-03-14T01:11:27;3.27;;;1.37;;
1885;SDS011;943;51.568;6.998;2023-03-14T01:14:00;11.57;;;2.10;;
1885;SDS011;943;51.568;6.998;2023-03-14T01:16:31;6.60;;;1.60;;
1885;SDS011;943;51.568;6.998;2023-03-14T01:19:02;8.27;;;1.60;;
1885;SDS011;943;51.568;6.998;2023-03-14T01:21:32;5.70;;;1.67;;
1885;SDS011;943;51.568;6.998;2023-03-14T01:24:02;6.93;;;1.67;;
1885;SDS011;943;51.568;6.998;2023-03-14T01:26:34;6.53;;;1.50;;
1885;SDS011;943;51.568;6.998;2023-03-14T01:29:04;6.80;;;1.60;;
1885;SDS011;943;51.568;6.998;2023-03-14T01:31:34;5.67;;;1.77;;
1885;SDS011;943;51.568;6.998;2023-03-14T01:34:03;7.93;;;1.67;;
1885;SDS011;943;51.568;6.998;2023-03-14T01:36:31;5.23;;;1.90;;
1885;SDS011;943;51.568;6.998;2023-03-14T01:39:00;5.37;;;1.97;;
1885;SDS011;943;51.568;6.998;2023-03-14T01:41:29;4.93;;;1.47;;
1885;SDS011;943;51.568;6.998;2023-03-14T01:43:58;8.53;;;2.00;;
1885;SDS011;943;51.568;6.998;2023-03-14T01:46:32;5.23;;;1.80;;
1885;SDS011;943;51.568;6.998;2023-03-14T01:49:22;5.33;;;1.50;;
1885;SDS011;943;51.568;6.998;2023-03-14T01:55:16;5.80;;;1.37;;
1885;SDS011;943;51.568;6.998;2023-03-14T01:57:53;8.93;;;1.40;;
1885;SDS011;943;51.568;6.998;2023-03-14T02:00:31;3.83;;;1.27;;
1885;SDS011;943;51.568;6.998;2023-03-14T02:03:01;5.67;;;1.27;;
1885;SDS011;943;51.568;6.998;2023-03-14T02:05:39;7.87;;;1.60;;
1885;SDS011;943;51.568;6.998;2023-03-14T02:08:19;4.73;;;1.70;;
1885;SDS011;943;51.568;6.998;2023-03-14T02:10:55;4.50;;;1.47;;
1885;SDS011;943;51.568;6.998;2023-03-14T02:13:37;3.13;;;1.40;;
1885;SDS011;943;51.568;6.998;2023-03-14T02:16:24;5.60;;;1.50;;
1885;SDS011;943;51.568;6.998;2023-03-14T02:19:02;5.13;;;1.40;;
1885;SDS011;943;51.568;6.998;2023-03-14T02:21:45;8.90;;;2.30;;
1885;SDS011;943;51.568;6.998;2023-03-14T02:25:03;8.53;;;2.57;;
1885;SDS011;943;51.568;6.998;2023-03-14T02:27:44;9.47;;;1.60;;
1885;SDS011;943;51.568;6.998;2023-03-14T02:30:16;5.20;;;1.53;;
1885;SDS011;943;51.568;6.998;2023-03-14T02:32:58;3.27;;;1.13;;
1885;SDS011;943;51.568;6.998;2023-03-14T02:35:46;5.53;;;1.93;;
1885;SDS011;943;51.568;6.998;2023-03-14T02:41:30;7.57;;;1.70;;
1885;SDS011;943;51.568;6.998;2023-03-14T02:44:02;3.40;;;1.70;;
1885;SDS011;943;51.568;6.998;2023-03-14T02:46:32;6.30;;;2.00;;
1885;SDS011;943;51.568;6.998;2023-03-14T02:49:02;8.00;;;1.17;;
1885;SDS011;943;51.568;6.998;2023-03-14T02:51:40;11.50;;;2.30;;
1885;SDS011;943;51.568;6.998;2023-03-14T02:54:12;5.10;;;1.73;;
1885;SDS011;943;51.568;6.998;2023-03-14T02:56:42;5.80;;;1.43;;
1885;SDS011;943;51.568;6.998;2023-03-14T02:59:11;6.73;;;2.23;;
1885;SDS011;943;51.568;6.998;2023-03-14T03:01:47;8.53;;;2.30;;
1885;SDS011;943;51.568;6.998;2023-03-14T03:04:15;5.83;;;1.27;;
1885;SDS011;943;51.568;6.998;2023-03-14T03:06:45;7.53;;;2.27;;
1885;SDS011;943;51.568;6.998;2023-03-14T03:09:14;4.73;;;1.40;;
1885;SDS011;943;51.568;6.998;2023-03-14T03:11:42;8.10;;;2.37;;
1885;SDS011;943;51.568;6.998;2023-03-14T03:14:16;6.20;;;1.60;;
1885;SDS011;943;51.568;6.998;2023-03-14T03:16:43;6.90;;;1.80;;
1885;SDS011;943;51.568;6.998;2023-03-14T03:19:11;11.00;;;1.90;;
1885;SDS011;943;51.568;6.998;2023-03-14T03:21:40;7.10;;;2.50;;
1885;SDS011;943;51.568;6.998;2023-03-14T03:24:10;7.23;;;1.87;;
1885;SDS011;943;51.568;6.998;2023-03-14T03:26:38;10.20;;;1.67;;
1885;SDS011;943;51.568;6.998;2023-03-14T03:29:08;4.80;;;1.57;;
1885;SDS011;943;51.568;6.998;2023-03-14T03:31:37;8.20;;;2.77;;
1885;SDS011;943;51.568;6.998;2023-03-14T03:34:06;8.60;;;1.90;;
1885;SDS011;943;51.568;6.998;2023-03-14T03:36:34;7.27;;;1.87;;
1885;SDS011;943;51.568;6.998;2023-03-14T03:39:01;5.40;;;2.13;;
1885;SDS011;943;51.568;6.998;2023-03-14T03:41:30;13.10;;;2.07;;
1885;SDS011;943;51.568;6.998;2023-03-14T03:44:00;9.40;;;2.70;;
1885;SDS011;943;51.568;6.998;2023-03-14T03:46:28;5.70;;;2.17;;
1885;SDS011;943;51.568;6.998;2023-03-14T03:48:57;8.60;;;2.30;;
1885;SDS011;943;51.568;6.998;2023-03-14T03:51:27;5.73;;;1.60;;
1885;SDS011;943;51.568;6.998;2023-03-14T03:53:56;7.70;;;1.67;;
1885;SDS011;943;51.568;6.998;2023-03-14T03:56:29;6.03;;;1.40;;
1885;SDS011;943;51.568;6.998;2023-03-14T03:58:58;3.70;;;1.30;;
1885;SDS011;943;51.568;6.998;2023-03-14T04:01:26;7.67;;;1.90;;
1885;SDS011;943;51.568;6.998;2023-03-14T04:03:57;7.93;;;2.10;;
1885;SDS011;943;51.568;6.998;2023-03-14T04:06:26;4.27;;;1.77;;
1885;SDS011;943;51.568;6.998;2023-03-14T04:08:57;9.20;;;2.13;;
1885;SDS011;943;51.568;6.998;2023-03-14T04:11:36;6.30;;;2.23;;
1885;SDS011;943;51.568;6.998;2023-03-14T04:14:25;6.07;;;1.90;;
1885;SDS011;943;51.568;6.998;2023-03-14T04:17:11;3.30;;;1.37;;
1885;SDS011;943;51.568;6.998;2023-03-14T04:19:39;5.23;;;1.23;;
1885;SDS011;943;51.568;6.998;2023-03-14T04:22:09;5.77;;;1.87;;
1885;SDS011;943;51.568;6.998;2023-03-14T04:24:46;7.10;;;1.40;;
1885;SDS011;943;51.568;6.998;2023-03-14T04:27:14;6.17;;;1.83;;
1885;SDS011;943;51.568;6.998;2023-03-14T04:29:44;7.40;;;2.70;;
1885;SDS011;943;51.568;6.998;2023-03-14T04:32:15;5.03;;;1.87;;
1885;SDS011;943;51.568;6.998;2023-03-14T04:34:43;5.30;;;1.43;;
1885;SDS011;943;51.568;6.998;2023-03-14T04:37:11;10.70;;;1.57;;
1885;SDS011;943;51.568;6.998;2023-03-14T04:39:42;4.80;;;2.17;;
1885;SDS011;943;51.568;6.998;2023-03-14T04:42:15;4.90;;;1.60;;
1885;SDS011;943;51.568;6.998;2023-03-14T04:44:43;3.40;;;1.40;;
1885;SDS011;943;51.568;6.998;2023-03-14T04:47:14;3.53;;;1.30;;
1885;SDS011;943;51.568;6.998;2023-03-14T04:49:44;4.17;;;1.33;;
1885;SDS011;943;51.568;6.998;2023-03-14T04:52:14;5.53;;;1.17;;
1885;SDS011;943;51.568;6.998;2023-03-14T04:54:42;4.33;;;1.10;;
1885;SDS011;943;51.568;6.998;2023-03-14T04:57:10;4.27;;;1.43;;
1885;SDS011;943;51.568;6.998;2023-03-14T04:59:38;3.30;;;1.50;;
1885;SDS011;943;51.568;6.998;2023-03-14T05:02:36;4.40;;;1.13;;
1885;SDS011;943;51.568;6.998;2023-03-14T05:05:11;5.80;;;1.70;;
1885;SDS011;943;51.568;6.998;2023-03-14T05:08:02;3.23;;;1.00;;
1885;SDS011;943;51.568;6.998;2023-03-14T05:10:45;3.20;;;1.40;;
1885;SDS011;943;51.568;6.998;2023-03-14T05:13:48;4.13;;;1.10;;
1885;SDS011;943;51.568;6.998;2023-03-14T05:16:42;4.17;;;1.87;;
1885;SDS011;943;51.568;6.998;2023-03-14T05:19:13;9.03;;;1.60;;
1885;SDS011;943;51.568;6.998;2023-03-14T05:21:59;5.83;;;1.70;;
1885;SDS011;943;51.568;6.998;2023-03-14T05:24:53;3.13;;;1.47;;
1885;SDS011;943;51.568;6.998;2023-03-14T05:27:39;4.23;;;1.70;;
1885;SDS011;943;51.568;6.998;2023-03-14T05:30:28;6.80;;;1.60;;
1885;SDS011;943;51.568;6.998;2023-03-14T05:33:17;5.93;;;1.70;;
1885;SDS011;943;51.568;6.998;2023-03-14T05:35:56;3.07;;;1.50;;
1885;SDS011;943;51.568;6.998;2023-03-14T05:38:50;4.67;;;1.97;;
1885;SDS011;943;51.568;6.998;2023-03-14T05:41:24;8.00;;;1.83;;
1885;SDS011;943;51.568;6.998;2023-03-14T05:44:03;6.17;;;1.83;;
1885;SDS011;943;51.568;6.998;2023-03-14T05:46:40;4.03;;;2.30;;
1885;SDS011;943;51.568;6.998;2023-03-14T05:49:35;9.53;;;2.57;;
1885;SDS011;943;51.568;6.998;2023-03-14T05:52:26;6.60;;;2.97;;
1885;SDS011;943;51.568;6.998;2023-03-14T05:55:32;4.57;;;2.57;;
1885;SDS011;943;51.568;6.998;2023-03-14T05:58:22;9.73;;;3.00;;
1885;SDS011;943;51.568;6.998;2023-03-14T06:01:14;5.17;;;3.33;;
1885;SDS011;943;51.568;6.998;2023-03-14T06:03:58;7.33;;;4.00;;
1885;SDS011;943;51.568;6.998;2023-03-14T06:06:27;6.47;;;4.10;;
1885;SDS011;943;51.568;6.998;2023-03-14T06:08:56;6.60;;;3.53;;
1885;SDS011;943;51.568;6.998;2023-03-14T06:11:24;7.27;;;5.10;;
1885;SDS011;943;51.568;6.998;2023-03-14T06:13:52;10.37;;;5.80;;
1885;SDS011;943;51.568;6.998;2023-03-14T06:16:20;9.10;;;5.17;;
1885;SDS011;943;51.568;6.998;2023-03-14T06:18:51;13.60;;;5.33;;
1885;SDS011;943;51.568;6.998;2023-03-14T06:21:20;7.87;;;5.60;;
1885;SDS011;943;51.568;6.998;2023-03-14T06:23:48;10.27;;;4.90;;
1885;SDS011;943;51.568;6.998;2023-03-14T06:26:17;17.93;;;5.70;;
1885;SDS011;943;51.568;6.998;2023-03-14T06:28:45;8.83;;;4.23;;
1885;SDS011;943;51.568;6.998;2023-03-14T06:31:12;4.90;;;3.13;;
1885;SDS011;943;51.568;6.998;2023-03-14T06:33:50;7.20;;;3.40;;
1885;SDS011;943;51.568;6.998;2023-03-14T06:36:18;4.47;;;3.00;;
1885;SDS011;943;51.568;6.998;2023-03-14T06:38:47;5.30;;;2.70;;
1885;SDS011;943;51.568;6.998;2023-03-14T06:41:15;5.17;;;2.50;;
1885;SDS011;943;51.568;6.998;2023-03-14T06:43:46;6.57;;;2.67;;
1885;SDS011;943;51.568;6.998;2023-03-14T06:46:14;4.63;;;2.17;;
1885;SDS011;943;51.568;6.998;2023-03-14T06:48:43;6.47;;;2.70;;
1885;SDS011;943;51.568;6.998;2023-03-14T06:51:11;4.60;;;2.60;;
1885;SDS011;943;51.568;6.998;2023-03-14T06:53:39;5.17;;;3.00;;
1885;SDS011;943;51.568;6.998;2023-03-14T06:56:08;4.77;;;2.60;;
1885;SDS011;943;51.568;6.998;2023-03-14T06:58:36;6.50;;;3.53;;
1885;SDS011;943;51.568;6.998;2023-03-14T07:01:10;6.70;;;3.60;;
1885;SDS011;943;51.568;6.998;2023-03-14T07:04:04;9.30;;;3.80;;
1885;SDS011;943;51.568;6.998;2023-03-14T07:06:34;6.33;;;3.80;;
1885;SDS011;943;51.568;6.998;2023-03-14T07:09:03;5.57;;;4.07;;
1885;SDS011;943;51.568;6.998;2023-03-14T07:11:34;8.03;;;4.53;;
1885;SDS011;943;51.568;6.998;2023-03-14T07:14:03;6.93;;;5.10;;
1885;SDS011;943;51.568;6.998;2023-03-14T07:16:31;7.53;;;5.00;;
1885;SDS011;943;51.568;6.998;2023-03-14T07:19:00;5.83;;;5.20;;
1885;SDS011;943;51.568;6.998;2023-03-14T07:21:30;9.33;;;4.93;;
1885;SDS011;943;51.568;6.998;2023-03-14T07:23:59;7.03;;;5.07;;
1885;SDS011;943;51.568;6.998;2023-03-14T07:26:29;7.53;;;5.10;;
1885;SDS011;943;51.568;6.998;2023-03-14T07:28:59;9.50;;;5.80;;
1885;SDS011;943;51.568;6.998;2023-03-14T07:31:32;8.60;;;5.60;;
1885;SDS011;943;51.568;6.998;2023-03-14T07:34:01;7.37;;;5.67;;
1885;SDS011;943;51.568;6.998;2023-03-14T07:36:34;8.77;;;5.43;;
1885;SDS011;943;51.568;6.998;2023-03-14T07:39:03;9.17;;;5.30;;
1885;SDS011;943;51.568;6.998;2023-03-14T07:41:40;13.37;;;6.50;;
1885;SDS011;943;51.568;6.998;2023-03-14T07:44:27;7.80;;;4.73;;
1885;SDS011;943;51.568;6.998;2023-03-14T07:46:55;7.10;;;5.03;;
1885;SDS011;943;51.568;6.998;2023-03-14T07:49:22;6.23;;;4.37;;
1885;SDS011;943;51.568;6.998;2023-03-14T07:51:50;6.30;;;4.10;;
1885;SDS011;943;51.568;6.998;2023-03-14T07:54:18;7.23;;;3.93;;
1885;SDS011;943;51.568;6.998;2023-03-14T07:56:46;6.90;;;4.70;;
1885;SDS011;943;51.568;6.998;2023-03-14T07:59:14;5.53;;;3.93;;
1885;SDS011;943;51.568;6.998;2023-03-14T08:01:42;8.03;;;4.37;;
1885;SDS011;943;51.568;6.998;2023-03-14T08:04:10;7.40;;;4.33;;
1885;SDS011;943;51.568;6.998;2023-03-14T08:06:38;5.87;;;4.47;;
1885;SDS011;943;51.568;6.998;2023-03-14T08:09:06;6.77;;;5.20;;
1885;SDS011;943;51.568;6.998;2023-03-14T08:11:34;6.80;;;5.20;;
1885;SDS011;943;51.568;6.998;2023-03-14T08:14:02;8.20;;;5.97;;
1885;SDS011;943;51.568;6.998;2023-03-14T08:16:30;8.17;;;6.90;;
1885;SDS011;943;51.568;6.998;2023-03-14T08:18:58;11.13;;;6.60;;
1885;SDS011;943;51.568;6.998;2023-03-14T08:21:26;8.50;;;6.60;;
1885;SDS011;943;51.568;6.998;2023-03-14T08:23:54;8.47;;;6.27;;
1885;SDS011;943;51.568;6.998;2023-03-14T08:26:22;8.37;;;6.70;;
1885;SDS011;943;51.568;6.998;2023-03-14T08:28:49;11.97;;;7.60;;
1885;SDS011;943;51.568;6.998;2023-03-14T08:31:17;11.60;;;6.53;;
1885;SDS011;943;51.568;6.998;2023-03-14T08:33:45;8.13;;;6.43;;
1885;SDS011;943;51.568;6.998;2023-03-14T08:36:13;10.90;;;7.80;;
1885;SDS011;943;51.568;6.998;2023-03-14T08:38:41;7.80;;;5.93;;
1885;SDS011;943;51.568;6.998;2023-03-14T08:41:09;7.63;;;6.23;;
1885;SDS011;943;51.568;6.998;2023-03-14T08:43:38;8.13;;;5.10;;
1885;SDS011;943;51.568;6.998;2023-03-14T08:46:06;8.03;;;5.50;;
1885;SDS011;943;51.568;6.998;2023-03-14T08:48:34;5.83;;;4.63;;
1885;SDS011;943;51.568;6.998;2023-03-14T08:51:08;3.67;;;2.90;;
1885;SDS011;943;51.568;6.998;2023-03-14T08:53:44;4.50;;;3.07;;
1885;SDS011;943;51.568;6.998;2023-03-14T08:56:12;5.10;;;2.77;;
1885;SDS011;943;51.568;6.998;2023-03-14T08:58:41;5.60;;;3.63;;
1885;SDS011;943;51.568;6.998;2023-03-14T09:01:10;4.80;;;3.80;;
1885;SDS011;943;51.568;6.998;2023-03-14T09:03:38;4.47;;;3.57;;
1885;SDS011;943;51.568;6.998;2023-03-14T09:06:07;7.33;;;4.33;;
1885;SDS011;943;51.568;6.998;2023-03-14T09:08:37;4.20;;;3.80;;
1885;SDS011;943;51.568;6.998;2023-03-14T09:11:08;5.97;;;5.00;;
1885;SDS011;943;51.568;6.998;2023-03-14T09:13:37;5.50;;;4.80;;
1885;SDS011;943;51.568;6.998;2023-03-14T09:16:05;8.30;;;4.87;;
1885;SDS011;943;51.568;6.998;2023-03-14T09:18:35;5.47;;;4.50;;
1885;SDS011;943;51.568;6.998;2023-03-14T09:21:03;3.70;;;2.07;;
1885;SDS011;943;51.568;6.998;2023-03-14T09:23:31;3.03;;;1.70;;
1885;SDS011;943;51.568;6.998;2023-03-14T09:25:59;2.93;;;0.90;;
1885;SDS011;943;51.568;6.998;2023-03-14T09:28:28;2.00;;;1.00;;
1885;SDS011;943;51.568;6.998;2023-03-14T09:30:56;2.10;;;0.80;;
1885;SDS011;943;51.568;6.998;2023-03-14T09:33:32;1.70;;;0.80;;
1885;SDS011;943;51.568;6.998;2023-03-14T09:36:02;3.10;;;1.00;;
1885;SDS011;943;51.568;6.998;2023-03-14T09:38:32;2.73;;;0.90;;
1885;SDS011;943;51.568;6.998;2023-03-14T09:41:03;2.00;;;0.90;;
1885;SDS011;943;51.568;6.998;2023-03-14T09:44:08;1.77;;;0.80;;
1885;SDS011;943;51.568;6.998;2023-03-14T09:46:55;2.13;;;1.10;;
1885;SDS011;943;51.568;6.998;2023-03-14T09:49:40;4.53;;;1.20;;
1885;SDS011;943;51.568;6.998;2023-03-14T09:55:05;2.97;;;1.70;;
1885;SDS011;943;51.568;6.998;2023-03-14T09:57:43;2.77;;;1.57;;
1885;SDS011;943;51.568;6.998;2023-03-14T10:00:19;2.70;;;1.50;;
1885;SDS011;943;51.568;6.998;2023-03-14T10:03:04;2.67;;;1.40;;
1885;SDS011;943;51.568;6.998;2023-03-14T10:05:53;2.57;;;1.20;;
1885;SDS011;943;51.568;6.998;2023-03-14T10:08:23;3.63;;;1.30;;
1885;SDS011;943;51.568;6.998;2023-03-14T10:10:51;3.73;;;1.50;;
1885;SDS011;943;51.568;6.998;2023-03-14T10:13:21;3.00;;;1.60;;
1885;SDS011;943;51.568;6.998;2023-03-14T10:15:59;5.73;;;1.80;;
1885;SDS011;943;51.568;6.998;2023-03-14T10:18:34;3.33;;;1.70;;
1885;SDS011;943;51.568;6.998;2023-03-14T10:21:03;2.20;;;1.40;;
1885;SDS011;943;51.568;6.998;2023-03-14T10:24:07;7.53;;;1.87;;
1885;SDS011;943;51.568;6.998;2023-03-14T10:26:49;3.87;;;2.00;;
1885;SDS011;943;51.568;6.998;2023-03-14T10:29:30;5.40;;;1.80;;
1885;SDS011;943;51.568;6.998;2023-03-14T10:32:05;4.27;;;2.10;;
1885;SDS011;943;51.568;6.998;2023-03-14T10:35:03;3.53;;;1.93;;
1885;SDS011;943;51.568;6.998;2023-03-14T10:40:37;3.00;;;1.47;;
1885;SDS011;943;51.568;6.998;2023-03-14T10:43:17;3.60;;;1.60;;
1885;SDS011;943;51.568;6.998;2023-03-14T10:45:54;4.63;;;1.50;;
1885;SDS011;943;51.568;6.998;2023-03-14T10:48:30;4.17;;;1.90;;
1885;SDS011;943;51.568;6.998;2023-03-14T10:53:58;2.53;;;1.20;;
1885;SDS011;943;51.568;6.998;2023-03-14T10:56:40;2.60;;;1.30;;
1885;SDS011;943;51.568;6.998;2023-03-14T10:59:12;2.83;;;1.07;;
1885;SDS011;943;51.568;6.998;2023-03-14T11:01:58;4.07;;;1.30;;
1885;SDS011;943;51.568;6.998;2023-03-14T11:11:48;3.00;;;1.53;;
1885;SDS011;943;51.568;6.998;2023-03-14T11:20:33;2.20;;;0.90;;
1885;SDS011;943;51.568;6.998;2023-03-14T11:30:21;1.80;;;0.90;;
1885;SDS011;943;51.568;6.998;2023-03-14T11:33:20;4.27;;;1.30;;
1885;SDS011;943;51.568;6.998;2023-03-14T11:36:08;3.00;;;1.00;;
1885;SDS011;943;51.568;6.998;2023-03-14T11:38:49;2.77;;;1.20;;
1885;SDS011;943;51.568;6.998;2023-03-14T11:41:36;6.10;;;1.10;;
1885;SDS011;943;51.568;6.998;2023-03-14T11:47:17;5.53;;;2.90;;
1885;SDS011;943;51.568;6.998;2023-03-14T11:53:02;5.50;;;1.20;;
1885;SDS011;943;51.568;6.998;2023-03-14T11:55:46;6.83;;;1.37;;
1885;SDS011;943;51.568;6.998;2023-03-14T11:58:24;6.00;;;1.63;;
1885;SDS011;943;51.568;6.998;2023-03-14T12:01:09;4.07;;;1.50;;
1885;SDS011;943;51.568;6.998;2023-03-14T12:03:45;5.50;;;1.33;;
1885;SDS011;943;51.568;6.998;2023-03-14T12:06:40;6.63;;;1.57;;
1885;SDS011;943;51.568;6.998;2023-03-14T12:09:18;14.73;;;2.63;;
1885;SDS011;943;51.568;6.998;2023-03-14T12:11:52;8.17;;;3.00;;
1885;SDS011;943;51.568;6.998;2023-03-14T12:14:30;7.43;;;1.33;;
1885;SDS011;943;51.568;6.998;2023-03-14T12:19:59;8.17;;;1.80;;
1885;SDS011;943;51.568;6.998;2023-03-14T12:22:55;8.30;;;1.43;;
1885;SDS011;943;51.568;6.998;2023-03-14T12:25:37;7.70;;;1.60;;
1885;SDS011;943;51.568;6.998;2023-03-14T12:28:16;7.50;;;2.20;;
1885;SDS011;943;51.568;6.998;2023-03-14T12:30:57;4.80;;;1.37;;
1885;SDS011;943;51.568;6.998;2023-03-14T12:34:42;5.80;;;1.20;;
1885;SDS011;943;51.568;6.998;2023-03-14T12:37:04;5.13;;;1.40;;
1885;SDS011;943;51.568;6.998;2023-03-14T12:43:32;7.47;;;2.20;;
1885;SDS011;943;51.568;6.998;2023-03-14T12:48:45;5.37;;;1.67;;
1885;SDS011;943;51.568;6.998;2023-03-14T12:51:36;12.30;;;1.80;;
1885;SDS011;943;51.568;6.998;2023-03-14T13:00:21;9.17;;;2.27;;
1885;SDS011;943;51.568;6.998;2023-03-14T13:03:26;10.23;;;3.07;;
1885;SDS011;943;51.568;6.998;2023-03-14T13:12:11;10.27;;;2.80;;
1885;SDS011;943;51.568;6.998;2023-03-14T13:14:45;13.87;;;3.40;;
1885;SDS011;943;51.568;6.998;2023-03-14T13:17:27;16.10;;;3.37;;
1885;SDS011;943;51.568;6.998;2023-03-14T13:20:05;10.93;;;2.27;;
1885;SDS011;943;51.568;6.998;2023-03-14T13:23:03;10.17;;;2.90;;
1885;SDS011;943;51.568;6.998;2023-03-14T13:25:32;7.90;;;2.50;;
1885;SDS011;943;51.568;6.998;2023-03-14T13:28:03;8.90;;;3.13;;
1885;SDS011;943;51.568;6.998;2023-03-14T13:30:41;8.57;;;2.53;;
1885;SDS011;943;51.568;6.998;2023-03-14T13:33:19;15.63;;;2.93;;
1885;SDS011;943;51.568;6.998;2023-03-14T13:35:57;20.00;;;4.07;;
1885;SDS011;943;51.568;6.998;2023-03-14T13:38:31;10.97;;;3.17;;
1885;SDS011;943;51.568;6.998;2023-03-14T13:41:06;18.27;;;3.80;;
1885;SDS011;943;51.568;6.998;2023-03-14T13:43:41;21.10;;;3.60;;
1885;SDS011;943;51.568;6.998;2023-03-14T13:46:15;18.87;;;3.40;;
1885;SDS011;943;51.568;6.998;2023-03-14T13:48:53;22.53;;;3.53;;
1885;SDS011;943;51.568;6.998;2023-03-14T13:51:29;10.20;;;3.40;;
1885;SDS011;943;51.568;6.998;2023-03-14T13:54:00;16.27;;;3.40;;
1885;SDS011;943;51.568;6.998;2023-03-14T13:56:32;14.50;;;4.10;;
1885;SDS011;943;51.568;6.998;2023-03-14T13:59:00;10.40;;;2.87;;
1885;SDS011;943;51.568;6.998;2023-03-14T14:01:34;15.43;;;3.37;;
1885;SDS011;943;51.568;6.998;2023-03-14T14:04:07;18.03;;;2.90;;
1885;SDS011;943;51.568;6.998;2023-03-14T14:09:41;10.70;;;2.53;;
1885;SDS011;943;51.568;6.998;2023-03-14T14:12:17;14.40;;;3.40;;
1885;SDS011;943;51.568;6.998;2023-03-14T14:15:27;6.13;;;2.53;;
1885;SDS011;943;51.568;6.998;2023-03-14T14:18:04;10.63;;;3.00;;
1885;SDS011;943;51.568;6.998;2023-03-14T14:20:41;9.60;;;2.60;;
1885;SDS011;943;51.568;6.998;2023-03-14T14:23:14;8.23;;;2.50;;
1885;SDS011;943;51.568;6.998;2023-03-14T14:25:56;11.00;;;2.60;;
1885;SDS011;943;51.568;6.998;2023-03-14T14:28:30;5.90;;;2.30;;
1885;SDS011;943;51.568;6.998;2023-03-14T14:34:02;7.17;;;2.50;;
1885;SDS011;943;51.568;6.998;2023-03-14T14:36:41;9.83;;;2.77;;
1885;SDS011;943;51.568;6.998;2023-03-14T14:41:55;5.43;;;1.90;;
1885;SDS011;943;51.568;6.998;2023-03-14T14:44:30;10.13;;;2.47;;
1885;SDS011;943;51.568;6.998;2023-03-14T14:47:03;8.87;;;2.20;;
1885;SDS011;943;51.568;6.998;2023-03-14T14:49:32;6.57;;;2.17;;
1885;SDS011;943;51.568;6.998;2023-03-14T14:52:02;9.30;;;2.20;;
1885;SDS011;943;51.568;6.998;2023-03-14T14:55:16;7.37;;;2.37;;
1885;SDS011;943;51.568;6.998;2023-03-14T14:57:51;6.80;;;2.77;;
1885;SDS011;943;51.568;6.998;2023-03-14T15:00:26;6.00;;;2.17;;
1885;SDS011;943;51.568;6.998;2023-03-14T15:02:58;7.00;;;2.63;;
1885;SDS011;943;51.568;6.998;2023-03-14T15:05:28;10.13;;;2.80;;
1885;SDS011;943;51.568;6.998;2023-03-14T15:08:00;11.57;;;1.90;;
1885;SDS011;943;51.568;6.998;2023-03-14T15:10:28;8.57;;;2.27;;
1885;SDS011;943;51.568;6.998;2023-03-14T15:12:57;6.57;;;1.80;;
1885;SDS011;943;51.568;6.998;2023-03-14T15:15:25;15.63;;;2.90;;
1885;SDS011;943;51.568;6.998;2023-03-14T15:17:53;10.93;;;1.90;;
1885;SDS011;943;51.568;6.998;2023-03-14T15:20:22;9.47;;;1.80;;
1885;SDS011;943;51.568;6.998;2023-03-14T15:22:50;6.40;;;2.17;;
1885;SDS011;943;51.568;6.998;2023-03-14T15:25:19;4.23;;;1.40;;
1885;SDS011;943;51.568;6.998;2023-03-14T15:30:53;4.93;;;1.57;;
1885;SDS011;943;51.568;6.998;2023-03-14T15:33:26;7.70;;;1.83;;
1885;SDS011;943;51.568;6.998;2023-03-14T15:35:55;7.60;;;2.07;;
1885;SDS011;943;51.568;6.998;2023-03-14T15:38:23;8.97;;;2.00;;
1885;SDS011;943;51.568;6.998;2023-03-14T15:40:51;6.20;;;1.60;;
1885;SDS011;943;51.568;6.998;2023-03-14T15:43:20;6.10;;;1.70;;
1885;SDS011;943;51.568;6.998;2023-03-14T15:45:47;7.30;;;1.87;;
1885;SDS011;943;51.568;6.998;2023-03-14T15:48:18;4.70;;;1.83;;
1885;SDS011;943;51.568;6.998;2023-03-14T15:50:48;6.13;;;1.90;;
1885;SDS011;943;51.568;6.998;2023-03-14T15:53:17;8.63;;;2.00;;
1885;SDS011;943;51.568;6.998;2023-03-14T15:55:45;4.17;;;1.57;;
1885;SDS011;943;51.568;6.998;2023-03-14T15:58:15;4.80;;;1.50;;
1885;SDS011;943;51.568;6.998;2023-03-14T16:00:48;5.97;;;1.53;;
1885;SDS011;943;51.568;6.998;2023-03-14T16:03:17;5.30;;;1.33;;
1885;SDS011;943;51.568;6.998;2023-03-14T16:05:45;5.20;;;2.00;;
1885;SDS011;943;51.568;6.998;2023-03-14T16:08:13;9.43;;;1.60;;
1885;SDS011;943;51.568;6.998;2023-03-14T16:10:41;5.73;;;1.30;;
1885;SDS011;943;51.568;6.998;2023-03-14T16:13:10;5.23;;;1.50;;
1885;SDS011;943;51.568;6.998;2023-03-14T16:15:38;4.80;;;1.40;;
1885;SDS011;943;51.568;6.998;2023-03-14T16:18:06;4.10;;;2.03;;
1885;SDS011;943;51.568;6.998;2023-03-14T16:21:07;6.50;;;1.83;;
1885;SDS011;943;51.568;6.998;2023-03-14T16:23:42;6.67;;;1.73;;
1885;SDS011;943;51.568;6.998;2023-03-14T16:26:12;5.73;;;1.53;;
1885;SDS011;943;51.568;6.998;2023-03-14T16:28:46;4.10;;;1.90;;
1885;SDS011;943;51.568;6.998;2023-03-14T16:31:15;9.63;;;2.57;;
1885;SDS011;943;51.568;6.998;2023-03-14T16:33:50;8.53;;;1.60;;
1885;SDS011;943;51.568;6.998;2023-03-14T16:36:18;5.83;;;1.30;;
1885;SDS011;943;51.568;6.998;2023-03-14T16:38:46;8.00;;;2.50;;
1885;SDS011;943;51.568;6.998;2023-03-14T16:41:15;4.40;;;1.27;;
1885;SDS011;943;51.568;6.998;2023-03-14T16:43:46;3.90;;;1.73;;
1885;SDS011;943;51.568;6.998;2023-03-14T16:46:19;6.70;;;1.97;;
1885;SDS011;943;51.568;6.998;2023-03-14T16:49:07;5.97;;;2.00;;
1885;SDS011;943;51.568;6.998;2023-03-14T16:51:36;8.87;;;2.43;;
1885;SDS011;943;51.568;6.998;2023-03-14T16:54:04;5.50;;;1.80;;
1885;SDS011;943;51.568;6.998;2023-03-14T16:56:32;8.13;;;1.70;;
1885;SDS011;943;51.568;6.998;2023-03-14T16:59:00;8.50;;;2.43;;
1885;SDS011;943;51.568;6.998;2023-03-14T17:01:28;14.63;;;1.97;;
1885;SDS011;943;51.568;6.998;2023-03-14T17:03:57;4.90;;;2.00;;
1885;SDS011;943;51.568;6.998;2023-03-14T17:06:26;6.00;;;1.73;;
1885;SDS011;943;51.568;6.998;2023-03-14T17:08:55;5.30;;;1.67;;
1885;SDS011;943;51.568;6.998;2023-03-14T17:11:23;6.17;;;2.27;;
1885;SDS011;943;51.568;6.998;2023-03-14T17:13:52;10.23;;;2.70;;
1885;SDS011;943;51.568;6.998;2023-03-14T17:16:20;8.60;;;2.37;;
1885;SDS011;943;51.568;6.998;2023-03-14T17:18:50;5.07;;;1.60;;
1885;SDS011;943;51.568;6.998;2023-03-14T17:21:18;7.83;;;1.70;;
1885;SDS011;943;51.568;6.998;2023-03-14T17:23:48;6.90;;;1.60;;
1885;SDS011;943;51.568;6.998;2023-03-14T17:26:16;7.00;;;1.77;;